Time;durP1;ratioP1;P1;durP2;ratioP2;P2;SDS_P1;SDS_P2;PMS_P1;PMS_P2;Temp;Humidity;BMP_temperature;BMP_pressure;BME280_temperature;BME280_humidity;BME280_pressure;Samples;Min_cycle;Max_cycle;Signal;HPM_P1;HPM_P2
2023/06/18 00:02:17;;;;;;;14.15;10.85;;;;;;;;;;6371849;22;20014;-64
2023/06/18 00:04:45;;;;;;;12.35;11.00;;;;;;;;;;6371469;22;20040;-64
2023/06/18 00:07:12;;;;;;;15.82;11.15;;;;;;;;;;6343528;22;20075;-65
2023/06/18 00:09:40;;;;;;;13.90;11.68;;;;;;;;;;6371114;22;20529;-63
2023/06/18 00:12:08;;;;;;;16.35;11.50;;;;;;;;;;6371436;22;20014;-63
2023/06/18 00:14:35;;;;;;;14.85;12.10;;;;;;;;;;6371261;22;20014;-65
2023/06/18 00:17:03;;;;;;;15.55;11.45;;;;;;;;;;6371251;22;20018;-64
2023/06/18 00:19:30;;;;;;;14.85;11.00;;;;;;;;;;6343896;22;20029;-65
2023/06/18 00:21:59;;;;;;;13.95;11.02;;;;;;;;;;6371076;22;20014;-63
2023/06/18 00:24:26;;;;;;;14.57;11.68;;;;;;;;;;6343317;22;20448;-63
2023/06/18 00:26:54;;;;;;;14.57;11.45;;;;;;;;;;6371212;22;20037;-64
2023/06/18 00:29:21;;;;;;;14.05;11.43;;;;;;;;;;6342903;22;20015;-64
2023/06/18 00:31:49;;;;;;;16.33;11.60;;;;;;;;;;6343201;22;20404;-64
2023/06/18 00:34:17;;;;;;;13.50;10.80;;;;;;;;;;6343464;22;20025;-65
2023/06/18 00:36:50;;;;;;;18.95;12.38;;;;;;;;;;6343118;22;20344;-64
2023/06/18 00:39:18;;;;;;;17.10;12.07;;;;;;;;;;6371209;22;20490;-65
2023/06/18 00:41:46;;;;;;;18.08;11.30;;;;;;;;;;6342932;22;20025;-64
2023/06/18 00:44:14;;;;;;;18.38;11.73;;;;;;;;;;6343821;22;20015;-64
2023/06/18 00:46:46;;;;;;;17.25;11.60;;;;;;;;;;6343157;22;20040;-64
2023/06/18 00:49:18;;;;;;;17.38;11.45;;;;;;;;;;6342247;22;20023;-64
2023/06/18 00:51:47;;;;;;;17.83;11.20;;;;;;;;;;6342813;22;20018;-64
2023/06/18 00:54:16;;;;;;;19.58;11.90;;;;;;;;;;6343600;22;20014;-63
2023/06/18 00:56:53;;;;;;;20.48;11.55;;;;;;;;;;6342914;22;20052;-64
2023/06/18 00:59:22;;;;;;;22.13;11.93;;;;;;;;;;6342655;22;20018;-64
2023/06/18 01:01:51;;;;;;;25.25;11.63;;;;;;;;;;6343356;22;20014;-64
2023/06/18 01:04:20;;;;;;;20.25;11.93;;;;;;;;;;6341982;22;20022;-64
2023/06/18 01:06:53;;;;;;;21.50;12.38;;;;;;;;;;6370437;22;20020;-64
2023/06/18 01:09:22;;;;;;;21.33;12.23;;;;;;;;;;6342528;22;20041;-64
2023/06/18 01:11:53;;;;;;;23.65;12.43;;;;;;;;;;6342833;22;20022;-64
2023/06/18 01:14:25;;;;;;;20.58;12.48;;;;;;;;;;6342368;22;20075;-64
2023/06/18 01:16:57;;;;;;;25.30;12.60;;;;;;;;;;6342666;22;20459;-64
2023/06/18 01:19:40;;;;;;;24.30;12.43;;;;;;;;;;6342771;22;20120;-64
2023/06/18 01:22:26;;;;;;;27.25;12.60;;;;;;;;;;6342640;22;20018;-64
2023/06/18 01:24:58;;;;;;;32.92;12.82;;;;;;;;;;6342597;22;20094;-64
2023/06/18 01:27:27;;;;;;;31.83;12.77;;;;;;;;;;6370806;22;20018;-64
2023/06/18 01:29:57;;;;;;;34.65;12.98;;;;;;;;;;6342523;22;20017;-64
2023/06/18 01:32:25;;;;;;;22.40;11.95;;;;;;;;;;6341948;22;20064;-63
2023/06/18 01:34:54;;;;;;;25.63;12.02;;;;;;;;;;6370526;22;20328;-63
2023/06/18 01:37:33;;;;;;;31.73;13.15;;;;;;;;;;6340491;22;20022;-64
2023/06/18 01:40:03;;;;;;;24.58;11.63;;;;;;;;;;6341975;22;20018;-63
2023/06/18 01:42:33;;;;;;;33.97;12.73;;;;;;;;;;6342595;22;20022;-63
2023/06/18 01:45:04;;;;;;;23.27;12.93;;;;;;;;;;6315482;22;20336;-63
2023/06/18 01:47:32;;;;;;;27.42;13.00;;;;;;;;;;6368214;22;20159;-63
2023/06/18 01:50:01;;;;;;;29.08;12.68;;;;;;;;;;6368925;22;20010;-63
2023/06/18 01:52:33;;;;;;;31.05;12.35;;;;;;;;;;6341501;22;20024;-63
2023/06/18 01:55:03;;;;;;;24.48;12.65;;;;;;;;;;6369161;22;20520;-63
2023/06/18 01:57:32;;;;;;;21.80;12.07;;;;;;;;;;6340620;22;20044;-63
2023/06/18 02:00:00;;;;;;;30.92;12.73;;;;;;;;;;6340708;22;20534;-63
2023/06/18 02:02:28;;;;;;;26.13;13.23;;;;;;;;;;6369188;22;20010;-63
2023/06/18 02:04:55;;;;;;;24.77;13.50;;;;;;;;;;6370213;22;20014;-63
2023/06/18 02:07:23;;;;;;;24.98;12.70;;;;;;;;;;6369681;22;20014;-63
2023/06/18 02:09:50;;;;;;;31.27;12.48;;;;;;;;;;6340791;22;20052;-63
2023/06/18 02:12:18;;;;;;;24.27;13.10;;;;;;;;;;6341097;22;20033;-63
2023/06/18 02:14:46;;;;;;;30.00;13.70;;;;;;;;;;6340143;22;20017;-63
2023/06/18 02:17:14;;;;;;;23.42;12.77;;;;;;;;;;6341464;22;20018;-63
2023/06/18 02:19:42;;;;;;;19.25;12.80;;;;;;;;;;6315464;22;20515;-63
2023/06/18 02:22:09;;;;;;;24.75;12.95;;;;;;;;;;6341888;22;20067;-63
2023/06/18 02:24:37;;;;;;;30.58;13.40;;;;;;;;;;6340717;22;20022;-63
2023/06/18 02:27:04;;;;;;;37.08;13.65;;;;;;;;;;6341146;22;20022;-63
2023/06/18 02:29:32;;;;;;;31.65;13.82;;;;;;;;;;6340539;22;20083;-63
2023/06/18 02:31:59;;;;;;;28.85;13.20;;;;;;;;;;6340941;22;20081;-63
2023/06/18 02:34:27;;;;;;;24.73;13.50;;;;;;;;;;6342048;22;20452;-63
2023/06/18 02:36:55;;;;;;;38.15;13.43;;;;;;;;;;6369339;22;20018;-63
2023/06/18 02:39:22;;;;;;;29.80;13.63;;;;;;;;;;6368782;22;20093;-63
2023/06/18 02:41:50;;;;;;;34.42;13.95;;;;;;;;;;6334673;22;20015;-64
2023/06/18 02:44:18;;;;;;;32.58;13.55;;;;;;;;;;6334801;22;20023;-63
2023/06/18 02:46:45;;;;;;;29.38;13.68;;;;;;;;;;6336155;22;20014;-63
2023/06/18 02:49:13;;;;;;;45.67;15.30;;;;;;;;;;6334865;22;20081;-63
2023/06/18 02:51:40;;;;;;;35.22;14.27;;;;;;;;;;6336106;22;20039;-63
2023/06/18 02:54:08;;;;;;;31.45;13.30;;;;;;;;;;6336387;22;20094;-63
2023/06/18 02:56:35;;;;;;;29.67;14.85;;;;;;;;;;6336836;22;20018;-63
2023/06/18 02:59:04;;;;;;;34.33;13.57;;;;;;;;;;6335202;22;20532;-64
2023/06/18 03:01:32;;;;;;;33.30;15.18;;;;;;;;;;6335876;22;20049;-63
2023/06/18 03:04:02;;;;;;;33.45;14.68;;;;;;;;;;6335854;22;20057;-63
2023/06/18 03:06:32;;;;;;;35.22;14.65;;;;;;;;;;6335969;22;20046;-63
2023/06/18 03:09:02;;;;;;;32.33;13.90;;;;;;;;;;6336149;22;20412;-63
2023/06/18 03:11:30;;;;;;;29.63;13.93;;;;;;;;;;6336451;22;20049;-63
2023/06/18 03:13:59;;;;;;;39.75;14.45;;;;;;;;;;6335541;22;20023;-63
2023/06/18 03:16:27;;;;;;;28.90;14.98;;;;;;;;;;6309626;22;20023;-63
2023/06/18 03:18:56;;;;;;;34.15;14.77;;;;;;;;;;6336847;22;20014;-63
2023/06/18 03:21:25;;;;;;;36.72;14.80;;;;;;;;;;6335046;22;20023;-63
2023/06/18 03:23:55;;;;;;;28.77;14.50;;;;;;;;;;6336692;22;20018;-63
2023/06/18 03:26:23;;;;;;;32.80;15.20;;;;;;;;;;6336156;22;20019;-63
2023/06/18 03:28:50;;;;;;;34.65;14.80;;;;;;;;;;6338096;22;20105;-63
2023/06/18 03:31:21;;;;;;;31.27;14.82;;;;;;;;;;6339475;22;20341;-63
2023/06/18 03:33:51;;;;;;;32.25;15.27;;;;;;;;;;6337704;22;20049;-63
2023/06/18 03:36:19;;;;;;;30.40;15.15;;;;;;;;;;6337096;22;20492;-63
2023/06/18 03:38:48;;;;;;;34.63;14.95;;;;;;;;;;6338301;22;20018;-63
2023/06/18 03:41:15;;;;;;;30.15;14.95;;;;;;;;;;6337680;22;20026;-64
2023/06/18 03:43:43;;;;;;;35.38;15.68;;;;;;;;;;6335471;22;20022;-63
2023/06/18 03:46:10;;;;;;;32.90;15.30;;;;;;;;;;6337186;22;20545;-63
2023/06/18 03:48:41;;;;;;;32.00;15.43;;;;;;;;;;6336955;22;20105;-63
2023/06/18 03:51:08;;;;;;;38.42;15.18;;;;;;;;;;6336916;22;20019;-62
2023/06/18 03:53:38;;;;;;;34.80;14.93;;;;;;;;;;6312016;22;20480;-63
2023/06/18 03:56:06;;;;;;;36.38;15.35;;;;;;;;;;6337272;22;20100;-63
2023/06/18 03:58:34;;;;;;;32.10;15.25;;;;;;;;;;6337151;22;20110;-63
2023/06/18 04:01:03;;;;;;;46.83;15.93;;;;;;;;;;6336096;22;20041;-64
2023/06/18 04:03:30;;;;;;;30.73;15.38;;;;;;;;;;6337440;22;20015;-63
2023/06/18 04:05:58;;;;;;;31.10;15.65;;;;;;;;;;6337253;22;20436;-63
2023/06/18 04:08:27;;;;;;;28.33;14.52;;;;;;;;;;6338000;22;20019;-63
2023/06/18 04:10:55;;;;;;;32.47;14.65;;;;;;;;;;6337512;22;20095;-63
2023/06/18 04:13:22;;;;;;;28.90;15.25;;;;;;;;;;6337293;22;20094;-63
2023/06/18 04:15:50;;;;;;;24.38;14.45;;;;;;;;;;6338170;22;20098;-64
2023/06/18 04:18:17;;;;;;;32.17;14.82;;;;;;;;;;6337968;22;20444;-64
2023/06/18 04:20:46;;;;;;;26.77;14.50;;;;;;;;;;6337870;22;20441;-62
2023/06/18 04:23:16;;;;;;;30.90;14.25;;;;;;;;;;6336604;22;20042;-64
2023/06/18 04:25:44;;;;;;;30.98;14.15;;;;;;;;;;6337943;22;20019;-63
2023/06/18 04:28:11;;;;;;;23.15;13.20;;;;;;;;;;6337889;22;20326;-63
2023/06/18 04:30:39;;;;;;;34.55;14.75;;;;;;;;;;6336310;22;20039;-63
2023/06/18 04:33:08;;;;;;;30.13;13.77;;;;;;;;;;6337649;22;20029;-63
2023/06/18 04:35:36;;;;;;;26.98;13.98;;;;;;;;;;6337913;22;20015;-63
2023/06/18 04:38:06;;;;;;;28.08;13.32;;;;;;;;;;6336780;22;20071;-63
2023/06/18 04:40:34;;;;;;;28.90;13.45;;;;;;;;;;6336794;22;20022;-62
2023/06/18 04:43:03;;;;;;;23.35;13.00;;;;;;;;;;6335771;22;20065;-62
2023/06/18 04:45:36;;;;;;;25.38;12.95;;;;;;;;;;6336501;22;20030;-63
2023/06/18 04:48:05;;;;;;;28.55;13.25;;;;;;;;;;6336348;22;20025;-63
2023/06/18 04:50:33;;;;;;;24.77;12.13;;;;;;;;;;6336297;22;20018;-63
2023/06/18 04:53:02;;;;;;;33.50;18.40;;;;;;;;;;6336769;22;20023;-63
2023/06/18 04:55:29;;;;;;;32.63;13.80;;;;;;;;;;6337592;22;20038;-63
2023/06/18 04:57:57;;;;;;;33.60;13.60;;;;;;;;;;6337115;22;20048;-63
2023/06/18 05:00:27;;;;;;;33.22;14.15;;;;;;;;;;6336844;22;20019;-64
2023/06/18 05:02:57;;;;;;;30.55;12.80;;;;;;;;;;6337092;22;20018;-64
2023/06/18 05:05:25;;;;;;;34.88;13.38;;;;;;;;;;6338616;22;20437;-64
2023/06/18 05:07:54;;;;;;;27.23;13.35;;;;;;;;;;6337100;22;20015;-64
2023/06/18 05:10:23;;;;;;;27.85;13.35;;;;;;;;;;6336688;22;20015;-63
2023/06/18 05:12:51;;;;;;;27.15;12.80;;;;;;;;;;6337106;22;20018;-63
2023/06/18 05:15:19;;;;;;;32.35;12.75;;;;;;;;;;6336699;22;20042;-63
2023/06/18 05:17:47;;;;;;;18.45;10.02;;;;;;;;;;6336207;22;20105;-64
2023/06/18 05:20:17;;;;;;;17.85;9.95;;;;;;;;;;6335819;22;20026;-63
2023/06/18 05:22:45;;;;;;;23.42;10.75;;;;;;;;;;6337436;22;20019;-64
2023/06/18 05:25:14;;;;;;;21.92;10.27;;;;;;;;;;6337007;22;20068;-63
2023/06/18 05:27:42;;;;;;;18.45;10.23;;;;;;;;;;6312010;22;20025;-63
2023/06/18 05:30:10;;;;;;;17.17;10.75;;;;;;;;;;6335566;22;20026;-64
2023/06/18 05:32:38;;;;;;;23.27;11.05;;;;;;;;;;6335675;22;20072;-64
2023/06/18 05:35:10;;;;;;;19.48;10.77;;;;;;;;;;6335404;22;20023;-64
2023/06/18 05:37:45;;;;;;;22.63;11.18;;;;;;;;;;6334820;22;20025;-65
2023/06/18 05:40:14;;;;;;;20.98;10.50;;;;;;;;;;6336564;22;20094;-64
2023/06/18 05:42:42;;;;;;;20.08;11.40;;;;;;;;;;6340256;22;20035;-64
2023/06/18 05:45:11;;;;;;;21.20;11.90;;;;;;;;;;6340778;22;20101;-64
2023/06/18 05:47:39;;;;;;;19.30;11.88;;;;;;;;;;6315635;22;20079;-64
2023/06/18 05:50:10;;;;;;;17.38;11.93;;;;;;;;;;6340098;22;20382;-64
2023/06/18 05:52:38;;;;;;;22.20;11.48;;;;;;;;;;6341602;22;20018;-64
2023/06/18 05:55:08;;;;;;;17.55;12.32;;;;;;;;;;6341092;22;20348;-60
2023/06/18 05:57:37;;;;;;;18.77;12.55;;;;;;;;;;6340533;22;20444;-60
2023/06/18 06:00:08;;;;;;;19.10;12.43;;;;;;;;;;6339973;22;20018;-60
2023/06/18 06:02:40;;;;;;;22.30;13.50;;;;;;;;;;6368331;22;20062;-59
2023/06/18 06:05:15;;;;;;;19.17;13.82;;;;;;;;;;6340672;22;20014;-59
2023/06/18 06:07:43;;;;;;;16.83;13.73;;;;;;;;;;6367887;22;20014;-60
2023/06/18 06:10:15;;;;;;;21.52;14.85;;;;;;;;;;6367942;22;20067;-60
2023/06/18 06:12:43;;;;;;;19.38;14.75;;;;;;;;;;6341003;22;20105;-60
2023/06/18 06:15:10;;;;;;;25.63;15.32;;;;;;;;;;6341032;22;20516;-59
2023/06/18 06:17:38;;;;;;;23.20;16.15;;;;;;;;;;6340184;22;20023;-59
2023/06/18 06:20:07;;;;;;;26.40;15.43;;;;;;;;;;6341307;22;20015;-59
2023/06/18 06:22:34;;;;;;;22.75;16.02;;;;;;;;;;6342045;22;20345;-59
2023/06/18 06:25:02;;;;;;;19.60;16.80;;;;;;;;;;6340084;22;20025;-60
2023/06/18 06:27:30;;;;;;;20.88;15.48;;;;;;;;;;6338698;22;20026;-59
2023/06/18 06:29:59;;;;;;;24.52;15.52;;;;;;;;;;6313096;22;20101;-59
2023/06/18 06:32:27;;;;;;;21.20;15.13;;;;;;;;;;6339551;22;20029;-60
2023/06/18 06:34:54;;;;;;;20.85;16.33;;;;;;;;;;6339026;22;20030;-59
2023/06/18 06:37:22;;;;;;;22.88;15.18;;;;;;;;;;6339170;22;20018;-59
2023/06/18 06:39:49;;;;;;;20.27;15.35;;;;;;;;;;6339441;22;20042;-59
2023/06/18 06:42:18;;;;;;;22.92;14.68;;;;;;;;;;6338882;22;20029;-59
2023/06/18 06:44:47;;;;;;;20.63;14.93;;;;;;;;;;6367123;22;20021;-59
2023/06/18 06:47:25;;;;;;;22.15;14.77;;;;;;;;;;6339186;22;20102;-59
2023/06/18 06:50:22;;;;;;;25.33;15.15;;;;;;;;;;6339661;22;20040;-59
2023/06/18 06:53:02;;;;;;;20.95;14.90;;;;;;;;;;6338685;22;20452;-60
2023/06/18 06:55:29;;;;;;;19.88;14.05;;;;;;;;;;6338853;22;20014;-59
2023/06/18 06:57:59;;;;;;;18.35;14.05;;;;;;;;;;6338739;22;20029;-60
2023/06/18 07:00:26;;;;;;;19.50;14.70;;;;;;;;;;6339591;22;20025;-60
2023/06/18 07:02:54;;;;;;;24.10;14.23;;;;;;;;;;6339770;22;20019;-59
2023/06/18 07:05:22;;;;;;;21.88;14.68;;;;;;;;;;6339198;22;20325;-60
2023/06/18 07:07:49;;;;;;;18.05;13.57;;;;;;;;;;6367899;22;20022;-59
2023/06/18 07:10:17;;;;;;;19.35;13.93;;;;;;;;;;6340470;22;20379;-60
2023/06/18 07:12:44;;;;;;;15.95;12.68;;;;;;;;;;6367750;22;20089;-59
2023/06/18 07:15:12;;;;;;;20.42;13.68;;;;;;;;;;6368239;22;20018;-60
2023/06/18 07:17:40;;;;;;;18.33;13.40;;;;;;;;;;6368038;22;20045;-60
2023/06/18 07:20:07;;;;;;;19.52;12.80;;;;;;;;;;6367974;22;20038;-60
2023/06/18 07:22:35;;;;;;;15.70;12.02;;;;;;;;;;6367604;22;20025;-59
2023/06/18 07:25:03;;;;;;;20.10;12.70;;;;;;;;;;6367575;22;20015;-60
2023/06/18 07:27:30;;;;;;;20.85;12.05;;;;;;;;;;6367246;22;20025;-59
2023/06/18 07:29:58;;;;;;;18.90;12.60;;;;;;;;;;6339494;22;20434;-60
2023/06/18 07:32:25;;;;;;;18.33;12.10;;;;;;;;;;6366919;22;20015;-59
2023/06/18 07:34:53;;;;;;;16.75;10.95;;;;;;;;;;6339133;22;20529;-59
2023/06/18 07:37:20;;;;;;;18.85;11.43;;;;;;;;;;6366892;22;20072;-59
2023/06/18 07:39:48;;;;;;;16.95;11.65;;;;;;;;;;6339998;22;20029;-59
2023/06/18 07:42:15;;;;;;;16.60;11.30;;;;;;;;;;6367197;22;20455;-62
2023/06/18 07:44:43;;;;;;;16.02;10.73;;;;;;;;;;6313663;22;20018;-61
2023/06/18 07:47:10;;;;;;;15.25;11.52;;;;;;;;;;6367319;22;20041;-61
2023/06/18 07:49:38;;;;;;;14.30;10.77;;;;;;;;;;6366108;22;20402;-61
2023/06/18 07:52:05;;;;;;;15.68;11.27;;;;;;;;;;6367123;22;20022;-63
2023/06/18 07:54:35;;;;;;;16.10;10.55;;;;;;;;;;6368164;22;20471;-61
2023/06/18 07:57:03;;;;;;;17.60;10.77;;;;;;;;;;6366968;22;20101;-62
2023/06/18 07:59:30;;;;;;;11.68;9.35;;;;;;;;;;6368626;22;20019;-62
2023/06/18 08:01:57;;;;;;;14.20;10.13;;;;;;;;;;6368806;22;20499;-61
2023/06/18 08:04:25;;;;;;;12.35;8.75;;;;;;;;;;6369122;22;20436;-61
2023/06/18 08:06:53;;;;;;;12.77;8.65;;;;;;;;;;6368158;22;20336;-61
2023/06/18 08:09:20;;;;;;;13.98;8.52;;;;;;;;;;6340438;22;20037;-61
2023/06/18 08:11:48;;;;;;;12.82;8.43;;;;;;;;;;6367102;22;20102;-61
2023/06/18 08:14:16;;;;;;;12.45;7.53;;;;;;;;;;6368402;22;20386;-61
2023/06/18 08:16:43;;;;;;;10.77;7.47;;;;;;;;;;6370462;22;20017;-61
2023/06/18 08:19:11;;;;;;;10.23;6.68;;;;;;;;;;6343021;22;20018;-61
2023/06/18 08:21:38;;;;;;;10.80;6.80;;;;;;;;;;6370985;22;20444;-61
2023/06/18 08:24:06;;;;;;;9.75;7.13;;;;;;;;;;6371133;22;20393;-61
2023/06/18 08:26:33;;;;;;;7.50;6.65;;;;;;;;;;6371241;22;20018;-61
2023/06/18 08:29:01;;;;;;;10.50;7.15;;;;;;;;;;6371115;22;20017;-61
2023/06/18 08:31:29;;;;;;;11.80;6.68;;;;;;;;;;6369303;22;20021;-61
2023/06/18 08:33:56;;;;;;;9.52;6.50;;;;;;;;;;6342102;22;20429;-61
2023/06/18 08:36:24;;;;;;;9.65;6.15;;;;;;;;;;6369896;22;20352;-61
2023/06/18 08:38:51;;;;;;;10.55;6.65;;;;;;;;;;6369981;22;20014;-61
2023/06/18 08:41:19;;;;;;;9.48;7.30;;;;;;;;;;6369951;22;20011;-61
2023/06/18 08:43:46;;;;;;;10.80;6.80;;;;;;;;;;6370497;22;20018;-60
2023/06/18 08:46:15;;;;;;;8.32;5.97;;;;;;;;;;6371153;22;20433;-61
2023/06/18 08:48:43;;;;;;;11.20;6.45;;;;;;;;;;6371092;22;20014;-62
2023/06/18 08:51:16;;;;;;;11.95;7.20;;;;;;;;;;6318276;22;20018;-62
2023/06/18 08:54:07;;;;;;;8.32;6.30;;;;;;;;;;6370952;22;20093;-62
2023/06/18 08:56:37;;;;;;;10.75;7.72;;;;;;;;;;6324640;22;20026;-62
2023/06/18 08:59:05;;;;;;;10.48;6.68;;;;;;;;;;6370803;22;20015;-62
2023/06/18 09:01:33;;;;;;;9.20;6.57;;;;;;;;;;6371232;22;20037;-62
2023/06/18 09:04:01;;;;;;;7.55;5.65;;;;;;;;;;6342856;22;20097;-62
2023/06/18 09:06:29;;;;;;;7.20;5.45;;;;;;;;;;6342947;22;20340;-62
2023/06/18 09:09:00;;;;;;;7.07;5.35;;;;;;;;;;6342929;22;20073;-62
2023/06/18 09:11:29;;;;;;;9.88;5.20;;;;;;;;;;6370699;22;20075;-62
2023/06/18 09:14:02;;;;;;;8.30;5.80;;;;;;;;;;6370669;22;20025;-62
2023/06/18 09:16:30;;;;;;;8.25;6.30;;;;;;;;;;6370532;22;20018;-62
2023/06/18 09:18:57;;;;;;;36.25;24.83;;;;;;;;;;6370753;22;20018;-62
2023/06/18 09:21:38;;;;;;;13.25;8.05;;;;;;;;;;6370735;22;20015;-61
2023/06/18 09:24:07;;;;;;;7.78;5.28;;;;;;;;;;6370732;22;20072;-61
2023/06/18 09:26:35;;;;;;;8.57;7.15;;;;;;;;;;6371017;22;20374;-62
2023/06/18 09:29:05;;;;;;;10.85;6.25;;;;;;;;;;6370570;22;20318;-62
2023/06/18 09:31:32;;;;;;;14.55;8.55;;;;;;;;;;6370440;22;20014;-61
2023/06/18 09:34:12;;;;;;;10.38;5.88;;;;;;;;;;6370365;22;20317;-62
2023/06/18 09:36:43;;;;;;;6.90;4.75;;;;;;;;;;6342519;22;20014;-61
2023/06/18 09:39:24;;;;;;;5.90;5.00;;;;;;;;;;6370535;22;20025;-61
2023/06/18 09:41:52;;;;;;;7.78;5.00;;;;;;;;;;6370225;22;20017;-61
2023/06/18 09:44:21;;;;;;;8.70;6.07;;;;;;;;;;6370345;22;20018;-61
2023/06/18 09:46:50;;;;;;;12.80;8.80;;;;;;;;;;6370867;22;20072;-61
2023/06/18 09:49:19;;;;;;;11.85;7.80;;;;;;;;;;6342900;22;20018;-61
2023/06/18 09:51:49;;;;;;;11.82;8.40;;;;;;;;;;6342452;22;20018;-62
2023/06/18 09:54:17;;;;;;;10.23;7.15;;;;;;;;;;6342281;22;20022;-61
2023/06/18 09:56:57;;;;;;;7.70;5.55;;;;;;;;;;6370455;22;20017;-61
2023/06/18 09:59:25;;;;;;;12.57;7.95;;;;;;;;;;6367741;22;20336;-62
2023/06/18 10:01:53;;;;;;;10.65;5.88;;;;;;;;;;6368611;22;20440;-62
2023/06/18 10:04:22;;;;;;;8.00;6.47;;;;;;;;;;6340504;22;20067;-62
2023/06/18 10:07:02;;;;;;;8.38;5.65;;;;;;;;;;6367119;22;20483;-64
2023/06/18 10:09:36;;;;;;;9.23;5.20;;;;;;;;;;6341437;22;20060;-61
2023/06/18 10:12:04;;;;;;;9.25;5.50;;;;;;;;;;6369143;22;20021;-62
2023/06/18 10:14:32;;;;;;;8.10;5.25;;;;;;;;;;6367904;22;20072;-61
2023/06/18 10:17:03;;;;;;;11.77;6.43;;;;;;;;;;6340597;22;20011;-62
2023/06/18 10:19:32;;;;;;;7.60;5.28;;;;;;;;;;6369323;22;20468;-62
2023/06/18 10:22:01;;;;;;;9.70;4.50;;;;;;;;;;6341166;22;20026;-61
2023/06/18 10:24:35;;;;;;;5.70;3.70;;;;;;;;;;6369034;22;20038;-61
2023/06/18 10:27:03;;;;;;;7.27;3.97;;;;;;;;;;6369195;22;20057;-62
2023/06/18 10:29:32;;;;;;;5.45;4.25;;;;;;;;;;6368548;22;20238;-62
2023/06/18 10:32:03;;;;;;;7.60;3.78;;;;;;;;;;6370248;22;20014;-62
2023/06/18 10:34:32;;;;;;;6.80;4.30;;;;;;;;;;6368682;22;20018;-62
2023/06/18 10:37:00;;;;;;;8.63;4.38;;;;;;;;;;6368205;22;20021;-61
2023/06/18 10:39:28;;;;;;;6.50;4.55;;;;;;;;;;6367486;22;20078;-61
2023/06/18 10:42:00;;;;;;;6.57;4.07;;;;;;;;;;6368152;22;20010;-61
2023/06/18 10:44:48;;;;;;;7.68;4.35;;;;;;;;;;6368178;22;20094;-61
2023/06/18 10:47:20;;;;;;;6.38;3.85;;;;;;;;;;6368558;22;20014;-61
2023/06/18 10:50:03;;;;;;;6.03;4.57;;;;;;;;;;6368465;22;20014;-62
2023/06/18 10:52:31;;;;;;;6.53;3.85;;;;;;;;;;6368648;22;20014;-61
2023/06/18 10:55:10;;;;;;;9.02;5.03;;;;;;;;;;6367145;22;20044;-61
2023/06/18 10:57:41;;;;;;;5.00;3.97;;;;;;;;;;6366188;22;20010;-61
2023/06/18 11:00:17;;;;;;;8.50;4.35;;;;;;;;;;6367573;22;20015;-61
2023/06/18 11:02:46;;;;;;;8.05;5.38;;;;;;;;;;6368179;22;20381;-61
2023/06/18 11:05:32;;;;;;;11.88;7.93;;;;;;;;;;6339659;22;20075;-61
2023/06/18 11:08:04;;;;;;;4.35;3.10;;;;;;;;;;6367274;22;20344;-61
2023/06/18 11:10:34;;;;;;;;;;;;;;;;;;6368911;22;20117;-61
2023/06/18 11:13:05;;;;;;;4.00;2.90;;;;;;;;;;6369108;22;20281;-61
2023/06/18 11:15:36;;;;;;;4.75;2.97;;;;;;;;;;6369143;22;20014;-61
2023/06/18 11:18:04;;;;;;;5.55;3.13;;;;;;;;;;6368137;22;20014;-62
2023/06/18 11:20:35;;;;;;;3.80;2.88;;;;;;;;;;6339895;22;20023;-62
2023/06/18 11:23:04;;;;;;;4.63;3.05;;;;;;;;;;6339560;22;20018;-61
2023/06/18 11:25:32;;;;;;;3.50;2.75;;;;;;;;;;6339982;22;20046;-62
2023/06/18 11:28:02;;;;;;;6.30;4.05;;;;;;;;;;6366907;22;20452;-62
2023/06/18 11:30:33;;;;;;;5.60;4.53;;;;;;;;;;6367486;22;20017;-61
2023/06/18 11:33:01;;;;;;;7.47;3.20;;;;;;;;;;6367036;22;20022;-62
2023/06/18 11:35:33;;;;;;;4.60;3.40;;;;;;;;;;6366970;22;20029;-62
2023/06/18 11:38:01;;;;;;;5.18;2.90;;;;;;;;;;6367085;22;20014;-62
2023/06/18 11:40:29;;;;;;;4.90;3.47;;;;;;;;;;6339618;22;20064;-62
2023/06/18 11:42:56;;;;;;;4.50;3.33;;;;;;;;;;6366866;22;20020;-62
2023/06/18 11:45:24;;;;;;;4.40;2.90;;;;;;;;;;6368038;22;20025;-62
2023/06/18 11:47:52;;;;;;;7.18;3.42;;;;;;;;;;6367475;22;20064;-62
2023/06/18 11:50:22;;;;;;;5.10;3.42;;;;;;;;;;6368944;22;20014;-62
2023/06/18 11:52:50;;;;;;;3.90;3.05;;;;;;;;;;6341287;22;20011;-62
2023/06/18 11:55:18;;;;;;;6.50;3.50;;;;;;;;;;6369257;22;20018;-61
2023/06/18 11:57:46;;;;;;;5.82;3.42;;;;;;;;;;6340964;22;20018;-62
2023/06/18 12:00:14;;;;;;;7.93;3.63;;;;;;;;;;6369835;22;20015;-62
2023/06/18 12:02:42;;;;;;;5.47;2.80;;;;;;;;;;6368799;22;20046;-61
2023/06/18 12:05:10;;;;;;;4.78;2.80;;;;;;;;;;6369240;22;20015;-61
2023/06/18 12:07:41;;;;;;;6.55;3.20;;;;;;;;;;6369088;22;20042;-61
2023/06/18 12:10:10;;;;;;;4.82;2.60;;;;;;;;;;6368523;22;20432;-61
2023/06/18 12:12:45;;;;;;;6.10;3.00;;;;;;;;;;6368262;22;20025;-62
2023/06/18 12:15:17;;;;;;;7.68;2.83;;;;;;;;;;6368334;22;20018;-62
2023/06/18 12:17:55;;;;;;;5.75;3.10;;;;;;;;;;6368936;22;20063;-62
2023/06/18 12:20:25;;;;;;;4.57;3.10;;;;;;;;;;6368691;22;20041;-62
2023/06/18 12:22:53;;;;;;;6.90;3.05;;;;;;;;;;6368241;22;20011;-62
2023/06/18 12:25:27;;;;;;;8.35;3.55;;;;;;;;;;6368569;22;20337;-61
2023/06/18 12:27:56;;;;;;;5.60;4.07;;;;;;;;;;6368386;22;20022;-62
2023/06/18 12:30:30;;;;;;;7.47;2.88;;;;;;;;;;6369216;22;20022;-61
2023/06/18 12:33:24;;;;;;;10.20;7.60;;;;;;;;;;6367930;22;20068;-62
2023/06/18 12:35:56;;;;;;;9.90;7.28;;;;;;;;;;6362714;22;20014;-61
2023/06/18 12:38:25;;;;;;;4.40;3.72;;;;;;;;;;6368767;22;20042;-61
2023/06/18 12:44:12;;;;;;;12.68;7.32;;;;;;;;;;6280120;22;20058;-62
2023/06/18 12:46:43;;;;;;;36.80;23.60;;;;;;;;;;6336473;22;20021;-59
2023/06/18 12:49:15;;;;;;;11.95;4.55;;;;;;;;;;6340437;22;20022;-61
2023/06/18 12:51:43;;;;;;;25.55;14.30;;;;;;;;;;6368512;22;20097;-61
2023/06/18 12:54:21;;;;;;;10.93;4.35;;;;;;;;;;6367858;22;20021;-62
2023/06/18 12:56:50;;;;;;;8.30;3.45;;;;;;;;;;6368305;22;20014;-61
2023/06/18 12:59:18;;;;;;;14.30;3.95;;;;;;;;;;6367114;22;20527;-61
2023/06/18 13:01:47;;;;;;;9.55;4.40;;;;;;;;;;6368684;22;20010;-60
2023/06/18 13:04:44;;;;;;;10.52;4.07;;;;;;;;;;6340126;22;20014;-63
2023/06/18 13:07:12;;;;;;;10.75;4.05;;;;;;;;;;6297531;22;20011;-61
2023/06/18 13:09:41;;;;;;;16.05;4.20;;;;;;;;;;6341868;22;20501;-61
2023/06/18 13:12:09;;;;;;;5.97;3.33;;;;;;;;;;6370054;22;20010;-62
2023/06/18 13:14:36;;;;;;;7.18;3.72;;;;;;;;;;6369869;22;20010;-61
2023/06/18 13:17:04;;;;;;;5.93;3.38;;;;;;;;;;6370035;22;20079;-62
2023/06/18 13:19:35;;;;;;;8.05;3.90;;;;;;;;;;6370202;22;20018;-61
2023/06/18 13:22:16;;;;;;;7.32;3.47;;;;;;;;;;6370761;22;20068;-61
2023/06/18 13:24:44;;;;;;;6.45;3.30;;;;;;;;;;6369875;22;20067;-61
2023/06/18 13:27:11;;;;;;;7.40;3.88;;;;;;;;;;6369455;22;20045;-61
2023/06/18 13:29:39;;;;;;;6.75;4.03;;;;;;;;;;6368866;22;20045;-61
2023/06/18 13:32:07;;;;;;;9.93;4.50;;;;;;;;;;6369814;22;20082;-60
2023/06/18 13:34:35;;;;;;;10.60;6.30;;;;;;;;;;6368834;22;20458;-60
2023/06/18 13:37:02;;;;;;;6.72;4.97;;;;;;;;;;6369785;22;20014;-60
2023/06/18 13:39:30;;;;;;;5.88;3.58;;;;;;;;;;6368958;22;20014;-61
2023/06/18 13:41:57;;;;;;;5.90;3.63;;;;;;;;;;6369827;22;20010;-62
2023/06/18 13:44:25;;;;;;;5.25;3.92;;;;;;;;;;6369803;22;20102;-61
2023/06/18 13:46:52;;;;;;;6.82;3.50;;;;;;;;;;6369887;22;20085;-61
2023/06/18 13:49:20;;;;;;;4.75;2.65;;;;;;;;;;6369887;22;20018;-61
2023/06/18 13:51:47;;;;;;;3.70;2.50;;;;;;;;;;6369839;22;20015;-61
2023/06/18 13:54:15;;;;;;;4.05;2.72;;;;;;;;;;6368724;22;20015;-61
2023/06/18 13:56:42;;;;;;;5.35;2.65;;;;;;;;;;6368518;22;20011;-61
2023/06/18 13:59:10;;;;;;;4.93;2.30;;;;;;;;;;6368986;22;20019;-61
2023/06/18 14:01:37;;;;;;;4.18;2.58;;;;;;;;;;6367419;22;20019;-61
2023/06/18 14:04:05;;;;;;;4.80;2.70;;;;;;;;;;6368434;22;20093;-61
2023/06/18 14:06:34;;;;;;;4.43;2.45;;;;;;;;;;6368573;22;20521;-61
2023/06/18 14:09:02;;;;;;;8.00;3.67;;;;;;;;;;6368221;22;20514;-62
2023/06/18 14:11:30;;;;;;;5.05;3.33;;;;;;;;;;6368200;22;20018;-61
2023/06/18 14:13:58;;;;;;;6.15;3.17;;;;;;;;;;6368314;22;20018;-62
2023/06/18 14:16:26;;;;;;;4.38;2.50;;;;;;;;;;6368400;22;20014;-61
2023/06/18 14:18:54;;;;;;;26.02;23.73;;;;;;;;;;6367883;22;20021;-62
2023/06/18 14:21:22;;;;;;;3.90;2.25;;;;;;;;;;6339965;22;20341;-61
2023/06/18 14:23:53;;;;;;;7.00;2.97;;;;;;;;;;6368075;22;20019;-62
2023/06/18 14:26:21;;;;;;;4.57;2.58;;;;;;;;;;6367535;22;20071;-60
2023/06/18 14:28:48;;;;;;;5.57;2.22;;;;;;;;;;6368161;22;20473;-61
2023/06/18 14:31:16;;;;;;;6.25;3.03;;;;;;;;;;6368675;22;20064;-61
2023/06/18 14:33:43;;;;;;;4.45;2.72;;;;;;;;;;6368178;22;20093;-62
2023/06/18 14:36:25;;;;;;;6.57;2.55;;;;;;;;;;6367398;22;20462;-61
2023/06/18 14:38:53;;;;;;;3.22;2.30;;;;;;;;;;6367689;22;20823;-61
2023/06/18 14:41:20;;;;;;;4.13;2.20;;;;;;;;;;6340086;22;20054;-62
2023/06/18 14:43:48;;;;;;;5.20;2.70;;;;;;;;;;6340057;22;20023;-61
2023/06/18 14:46:15;;;;;;;3.53;1.98;;;;;;;;;;6368329;22;20086;-61